createdAt,value
2022-10-19T00:00:18.056Z,1025.62
2022-10-19T00:01:18.256Z,1025.61
2022-10-19T00:02:18.433Z,1025.62
2022-10-19T00:03:22.263Z,1025.65
2022-10-19T00:04:18.737Z,1025.64
2022-10-19T00:05:18.904Z,1025.68
2022-10-19T00:06:19.068Z,1025.65
2022-10-19T00:07:19.252Z,1025.65
2022-10-19T00:08:19.409Z,1025.75
2022-10-19T00:09:19.601Z,1025.68
2022-10-19T00:10:19.758Z,1025.70
2022-10-19T00:11:19.920Z,1025.71
2022-10-19T00:12:20.091Z,1025.76
2022-10-19T00:13:20.246Z,1025.73
2022-10-19T00:14:20.450Z,1025.76
2022-10-19T00:15:20.609Z,1025.74
2022-10-19T00:16:20.779Z,1025.75
2022-10-19T00:17:20.951Z,1025.78
2022-10-19T00:18:21.112Z,1025.82
2022-10-19T00:19:21.271Z,1025.80
2022-10-19T00:20:21.430Z,1025.78
2022-10-19T00:21:21.591Z,1025.79
2022-10-19T00:22:21.762Z,1025.77
2022-10-19T00:23:21.912Z,1025.78
2022-10-19T00:24:22.081Z,1025.77
2022-10-19T00:25:22.237Z,1025.78
2022-10-19T00:26:22.393Z,1025.75
2022-10-19T00:27:22.601Z,1025.75
2022-10-19T00:28:22.765Z,1025.74
2022-10-19T00:29:22.920Z,1025.77
2022-10-19T00:30:23.114Z,1025.80
2022-10-19T00:31:23.275Z,1025.81
2022-10-19T00:32:23.458Z,1025.77
2022-10-19T00:33:23.604Z,1025.78
2022-10-19T00:34:23.795Z,1025.77
2022-10-19T00:35:23.985Z,1025.79
2022-10-19T00:36:24.147Z,1025.77
2022-10-19T00:37:24.316Z,1025.76
2022-10-19T00:38:24.469Z,1025.73
2022-10-19T00:39:24.737Z,1025.76
2022-10-19T00:40:24.848Z,1025.72
2022-10-19T00:41:25.007Z,1025.70
2022-10-19T00:42:25.183Z,1025.70
2022-10-19T00:43:25.339Z,1025.70
2022-10-19T00:44:25.498Z,1025.71
2022-10-19T00:45:25.657Z,1025.72
2022-10-19T00:46:25.851Z,1025.72
2022-10-19T00:47:26.071Z,1025.67
2022-10-19T00:48:26.191Z,1025.68
2022-10-19T00:49:26.359Z,1025.69
2022-10-19T00:50:26.515Z,1025.67
2022-10-19T00:51:26.701Z,1025.65
2022-10-19T00:52:26.910Z,1025.65
2022-10-19T00:53:27.061Z,1025.60
2022-10-19T00:54:27.254Z,1025.64
2022-10-19T00:55:27.411Z,1025.60
2022-10-19T00:56:27.602Z,1025.64
2022-10-19T00:57:27.777Z,1025.60
2022-10-19T00:58:27.931Z,1025.65
2022-10-19T00:59:28.093Z,1025.60
2022-10-19T01:00:28.250Z,1025.64
2022-10-19T01:01:28.505Z,1025.60
2022-10-19T01:02:28.656Z,1025.60
2022-10-19T01:03:28.783Z,1025.59
2022-10-19T01:04:28.945Z,1025.57
2022-10-19T01:05:29.102Z,1025.61
2022-10-19T01:06:29.255Z,1025.59
2022-10-19T01:07:29.426Z,1025.58
2022-10-19T01:08:29.591Z,1025.60
2022-10-19T01:09:29.748Z,1025.62
2022-10-19T01:10:29.936Z,1025.61
2022-10-19T01:11:30.104Z,1025.59
2022-10-19T01:12:30.265Z,1025.59
2022-10-19T01:13:30.420Z,1025.62
2022-10-19T01:14:30.617Z,1025.57
2022-10-19T01:15:30.768Z,1025.56
2022-10-19T01:16:30.977Z,1025.59
2022-10-19T01:17:31.366Z,1025.64
2022-10-19T01:18:31.328Z,1025.61
2022-10-19T01:19:31.483Z,1025.59
2022-10-19T01:20:31.675Z,1025.54
2022-10-19T01:21:31.866Z,1025.57
2022-10-19T01:22:32.002Z,1025.56
2022-10-19T01:23:32.150Z,1025.56
2022-10-19T01:24:34.805Z,1025.53
2022-10-19T01:25:32.475Z,1025.54
2022-10-19T01:26:32.651Z,1025.52
2022-10-19T01:27:33.084Z,1025.55
2022-10-19T01:28:33.017Z,1025.51
2022-10-19T01:29:33.152Z,1025.49
2022-10-19T01:30:33.351Z,1025.51
2022-10-19T01:31:33.529Z,1025.53
2022-10-19T01:32:33.690Z,1025.52
2022-10-19T01:33:33.846Z,1025.53
2022-10-19T01:34:34.039Z,1025.54
2022-10-19T01:35:34.198Z,1025.52
2022-10-19T01:36:34.373Z,1025.55
2022-10-19T01:37:34.767Z,1025.58
2022-10-19T01:38:34.722Z,1025.51
2022-10-19T01:39:34.875Z,1025.54
2022-10-19T01:40:35.071Z,1025.52
2022-10-19T01:41:35.242Z,1025.50
2022-10-19T01:42:35.412Z,1025.52
2022-10-19T01:43:35.565Z,1025.52
2022-10-19T01:44:35.726Z,1025.53
2022-10-19T01:45:35.883Z,1025.52
2022-10-19T01:46:36.097Z,1025.54
2022-10-19T01:47:36.531Z,1025.55
2022-10-19T01:48:36.437Z,1025.53
2022-10-19T01:49:36.598Z,1025.55
2022-10-19T01:50:36.772Z,1025.56
2022-10-19T01:51:36.931Z,1025.52
2022-10-19T01:52:37.176Z,1025.54
2022-10-19T01:53:37.248Z,1025.50
2022-10-19T01:54:37.417Z,1025.49
2022-10-19T01:55:37.570Z,1025.51
2022-10-19T01:56:37.761Z,1025.49
2022-10-19T01:57:37.920Z,1025.46
2022-10-19T01:58:38.100Z,1025.46
2022-10-19T01:59:38.263Z,1025.43
2022-10-19T02:00:38.442Z,1025.45
2022-10-19T02:01:38.594Z,1025.40
2022-10-19T02:02:38.754Z,1025.41
2022-10-19T02:03:38.907Z,1025.39
2022-10-19T02:04:39.062Z,1025.39
2022-10-19T02:05:39.236Z,1025.38
2022-10-19T02:06:39.394Z,1025.32
2022-10-19T02:07:39.556Z,1025.35
2022-10-19T02:08:39.713Z,1025.31
2022-10-19T02:09:39.875Z,1025.29
2022-10-19T02:10:40.066Z,1025.28
2022-10-19T02:11:40.203Z,1025.28
2022-10-19T02:12:40.400Z,1025.27
2022-10-19T02:13:40.556Z,1025.27
2022-10-19T02:14:40.756Z,1025.28
2022-10-19T02:15:40.926Z,1025.24
2022-10-19T02:16:41.088Z,1025.19
2022-10-19T02:17:41.266Z,1025.21
2022-10-19T02:18:41.431Z,1025.25
2022-10-19T02:19:41.598Z,1025.18
2022-10-19T02:20:41.769Z,1025.21
2022-10-19T02:21:41.917Z,1025.25
2022-10-19T02:22:42.080Z,1025.24
2022-10-19T02:23:42.239Z,1025.27
2022-10-19T02:24:42.430Z,1025.28
2022-10-19T02:25:42.556Z,1025.32
2022-10-19T02:26:42.720Z,1025.34
2022-10-19T02:27:42.885Z,1025.31
2022-10-19T02:28:43.038Z,1025.32
2022-10-19T02:29:43.219Z,1025.34
2022-10-19T02:30:43.379Z,1025.33
2022-10-19T02:31:43.530Z,1025.32
2022-10-19T02:32:43.691Z,1025.33
2022-10-19T02:33:43.842Z,1025.31
2022-10-19T02:34:44.052Z,1025.32
2022-10-19T02:35:44.207Z,1025.34
2022-10-19T02:36:44.361Z,1025.32
2022-10-19T02:37:44.558Z,1025.34
2022-10-19T02:38:44.713Z,1025.32
2022-10-19T02:39:44.884Z,1025.34
2022-10-19T02:40:45.048Z,1025.32
2022-10-19T02:41:45.226Z,1025.34
2022-10-19T02:42:45.387Z,1025.32
2022-10-19T02:43:45.544Z,1025.35
2022-10-19T02:44:45.714Z,1025.32
2022-10-19T02:45:45.874Z,1025.33
2022-10-19T02:46:46.037Z,1025.34
2022-10-19T02:47:46.196Z,1025.32
2022-10-19T02:48:46.356Z,1025.33
2022-10-19T02:49:46.532Z,1025.33
2022-10-19T02:50:46.689Z,1025.29
2022-10-19T02:51:46.867Z,1025.25
2022-10-19T02:52:47.026Z,1025.29
2022-10-19T02:53:47.186Z,1025.28
2022-10-19T02:54:47.370Z,1025.27
2022-10-19T02:55:47.540Z,1025.27
2022-10-19T02:56:47.703Z,1025.27
2022-10-19T02:57:47.867Z,1025.27
2022-10-19T02:58:48.050Z,1025.25
2022-10-19T02:59:48.226Z,1025.22
2022-10-19T03:00:48.416Z,1025.25
2022-10-19T03:01:48.570Z,1025.31
2022-10-19T03:02:48.738Z,1025.25
2022-10-19T03:03:48.891Z,1025.31
2022-10-19T03:04:49.079Z,1025.34
2022-10-19T03:05:49.223Z,1025.37
2022-10-19T03:06:49.422Z,1025.33
2022-10-19T03:07:49.573Z,1025.34
2022-10-19T03:08:49.752Z,1025.31
2022-10-19T03:09:49.912Z,1025.31
2022-10-19T03:10:50.072Z,1025.37
2022-10-19T03:11:50.274Z,1025.38
2022-10-19T03:12:50.432Z,1025.39
2022-10-19T03:13:50.590Z,1025.44
2022-10-19T03:14:50.774Z,1025.44
2022-10-19T03:15:50.944Z,1025.38
2022-10-19T03:16:51.102Z,1025.45
2022-10-19T03:17:51.256Z,1025.45
2022-10-19T03:18:51.451Z,1025.45
2022-10-19T03:19:51.608Z,1025.40
2022-10-19T03:20:51.787Z,1025.41
2022-10-19T03:21:51.975Z,1025.45
2022-10-19T03:23:52.282Z,1025.48
2022-10-19T03:24:52.462Z,1025.47
2022-10-19T03:25:52.606Z,1025.48
2022-10-19T03:26:52.826Z,1025.51
2022-10-19T03:27:52.983Z,1025.52
2022-10-19T03:28:53.171Z,1025.49
2022-10-19T03:29:53.338Z,1025.53
2022-10-19T03:30:53.498Z,1025.52
2022-10-19T03:31:53.659Z,1025.49
2022-10-19T03:32:53.820Z,1025.50
2022-10-19T03:33:53.973Z,1025.47
2022-10-19T03:34:54.130Z,1025.52
2022-10-19T03:35:54.290Z,1025.47
2022-10-19T03:36:54.490Z,1025.49
2022-10-19T03:37:54.649Z,1025.49
2022-10-19T03:38:54.805Z,1025.53
2022-10-19T03:39:54.990Z,1025.54
2022-10-19T03:40:55.197Z,1025.56
2022-10-19T03:41:55.341Z,1025.58
2022-10-19T03:42:55.553Z,1025.59
2022-10-19T03:43:55.735Z,1025.61
2022-10-19T03:44:55.899Z,1025.59
2022-10-19T03:45:56.063Z,1025.58
2022-10-19T03:46:56.223Z,1025.54
2022-10-19T03:47:56.384Z,1025.56
2022-10-19T03:48:56.543Z,1025.56
2022-10-19T03:49:56.703Z,1025.60
2022-10-19T03:50:56.908Z,1025.58
2022-10-19T03:51:57.069Z,1025.60
2022-10-19T03:52:57.269Z,1025.65
2022-10-19T03:53:57.395Z,1025.67
2022-10-19T03:54:57.556Z,1025.66
2022-10-19T03:55:57.725Z,1025.70
2022-10-19T03:56:57.897Z,1025.67
2022-10-19T03:57:58.055Z,1025.69
2022-10-19T03:58:58.244Z,1025.68
2022-10-19T03:59:58.397Z,1025.69
2022-10-19T04:00:58.712Z,1025.69
2022-10-19T04:01:58.778Z,1025.74
2022-10-19T04:02:58.942Z,1025.77
2022-10-19T04:03:59.100Z,1025.77
2022-10-19T04:04:59.270Z,1025.77
2022-10-19T04:05:59.440Z,1025.74
2022-10-19T04:06:59.592Z,1025.76
2022-10-19T04:07:59.749Z,1025.78
2022-10-19T04:08:59.909Z,1025.72
2022-10-19T04:10:00.064Z,1025.78
2022-10-19T04:11:00.242Z,1025.81
2022-10-19T04:12:00.411Z,1025.85
2022-10-19T04:13:00.571Z,1025.85
2022-10-19T04:14:00.804Z,1025.83
2022-10-19T04:15:00.900Z,1025.85
2022-10-19T04:16:01.072Z,1025.89
2022-10-19T04:17:01.232Z,1025.86
2022-10-19T04:18:01.393Z,1025.85
2022-10-19T04:19:01.569Z,1025.90
2022-10-19T04:20:01.716Z,1025.84
2022-10-19T04:21:01.919Z,1025.88
2022-10-19T04:22:02.037Z,1025.86
2022-10-19T04:23:02.214Z,1025.95
2022-10-19T04:24:02.355Z,1025.83
2022-10-19T04:25:02.508Z,1025.88
2022-10-19T04:26:02.735Z,1025.85
2022-10-19T04:27:02.886Z,1025.87
2022-10-19T04:28:03.076Z,1025.88
2022-10-19T04:29:03.314Z,1025.91
2022-10-19T04:30:03.419Z,1025.92
2022-10-19T04:31:03.586Z,1025.94
2022-10-19T04:32:03.762Z,1025.90
2022-10-19T04:33:03.917Z,1025.85
2022-10-19T04:34:04.109Z,1025.86
2022-10-19T04:35:04.268Z,1025.89
2022-10-19T04:36:04.458Z,1025.85
2022-10-19T04:37:04.647Z,1025.84
2022-10-19T04:38:04.800Z,1025.85
2022-10-19T04:39:04.962Z,1025.86
2022-10-19T04:40:05.120Z,1025.89
2022-10-19T04:41:05.278Z,1025.89
2022-10-19T04:42:12.475Z,1025.90
2022-10-19T04:43:05.626Z,1025.90
2022-10-19T04:44:05.823Z,1025.90
2022-10-19T04:45:05.982Z,1025.93
2022-10-19T04:46:06.165Z,1025.97
2022-10-19T04:47:06.326Z,1025.96
2022-10-19T04:48:06.556Z,1025.96
2022-10-19T04:49:06.725Z,1025.94
2022-10-19T04:50:06.875Z,1025.98
2022-10-19T04:51:07.016Z,1025.98
2022-10-19T04:52:07.209Z,1026.00
2022-10-19T04:53:07.383Z,1026.00
2022-10-19T04:54:07.539Z,1026.08
2022-10-19T04:55:07.701Z,1026.06
2022-10-19T04:56:07.895Z,1026.04
2022-10-19T04:57:08.056Z,1025.99
2022-10-19T04:58:08.220Z,1025.98
2022-10-19T04:59:08.379Z,1025.98
2022-10-19T05:00:08.538Z,1026.00
2022-10-19T05:01:08.771Z,1025.99
2022-10-19T05:02:08.879Z,1025.99
2022-10-19T05:03:09.041Z,1026.00
2022-10-19T05:04:09.201Z,1026.00
2022-10-19T05:05:09.359Z,1025.99
2022-10-19T05:06:09.540Z,1025.96
2022-10-19T05:07:09.701Z,1025.99
2022-10-19T05:08:09.862Z,1026.00
2022-10-19T05:09:10.031Z,1025.98
2022-10-19T05:10:10.183Z,1026.01
2022-10-19T05:11:10.352Z,1025.98
2022-10-19T05:12:10.512Z,1026.00
2022-10-19T05:13:10.663Z,1026.03
2022-10-19T05:14:10.855Z,1026.02
2022-10-19T05:15:11.014Z,1026.05
2022-10-19T05:16:11.194Z,1026.03
2022-10-19T05:17:11.355Z,1026.03
2022-10-19T05:18:11.514Z,1026.05
2022-10-19T05:19:11.674Z,1026.06
2022-10-19T05:20:11.825Z,1026.07
2022-10-19T05:21:12.035Z,1026.07
2022-10-19T05:22:12.195Z,1026.09
2022-10-19T05:23:12.355Z,1026.08
2022-10-19T05:24:12.560Z,1026.13
2022-10-19T05:25:12.716Z,1026.08
2022-10-19T05:26:12.897Z,1026.17
2022-10-19T05:27:13.046Z,1026.14
2022-10-19T05:28:13.237Z,1026.13
2022-10-19T05:29:13.399Z,1026.11
2022-10-19T05:30:13.587Z,1026.16
2022-10-19T05:31:14.037Z,1026.15
2022-10-19T05:32:13.938Z,1026.18
2022-10-19T05:33:14.088Z,1026.19
2022-10-19T05:34:14.290Z,1026.15
2022-10-19T05:35:17.462Z,1026.18
2022-10-19T05:36:15.654Z,1026.19
2022-10-19T05:37:14.832Z,1026.20
2022-10-19T05:38:14.989Z,1026.18
2022-10-19T05:39:15.155Z,1026.18
2022-10-19T05:40:15.314Z,1026.23
2022-10-19T05:41:15.502Z,1026.19
2022-10-19T05:42:15.691Z,1026.21
2022-10-19T05:43:15.861Z,1026.22
2022-10-19T05:44:16.022Z,1026.22
2022-10-19T05:45:16.183Z,1026.25
2022-10-19T05:46:16.343Z,1026.23
2022-10-19T05:47:16.514Z,1026.28
2022-10-19T05:48:16.671Z,1026.29
2022-10-19T05:49:16.822Z,1026.32
2022-10-19T05:50:16.995Z,1026.30
2022-10-19T05:51:17.154Z,1026.30
2022-10-19T05:52:17.345Z,1026.29
2022-10-19T05:53:17.484Z,1026.30
2022-10-19T05:54:17.665Z,1026.30
2022-10-19T05:55:17.855Z,1026.31
2022-10-19T05:56:17.999Z,1026.31
2022-10-19T05:57:18.224Z,1026.35
2022-10-19T05:58:18.445Z,1026.34
2022-10-19T05:59:18.544Z,1026.33
2022-10-19T06:00:18.731Z,1026.35
2022-10-19T06:01:18.924Z,1026.34
2022-10-19T06:02:19.106Z,1026.34
2022-10-19T06:03:19.256Z,1026.35
2022-10-19T06:04:19.408Z,1026.38
2022-10-19T06:05:19.580Z,1026.37
2022-10-19T06:06:19.748Z,1026.34
2022-10-19T06:07:19.941Z,1026.37
2022-10-19T06:08:20.122Z,1026.39
2022-10-19T06:09:20.291Z,1026.36
2022-10-19T06:10:20.469Z,1026.37
2022-10-19T06:11:20.646Z,1026.37
2022-10-19T06:12:24.273Z,1026.36
2022-10-19T06:13:20.990Z,1026.43
2022-10-19T06:14:21.184Z,1026.41
2022-10-19T06:15:21.349Z,1026.40
2022-10-19T06:16:21.521Z,1026.44
2022-10-19T06:17:21.716Z,1026.42
2022-10-19T06:18:21.882Z,1026.41
2022-10-19T06:19:22.074Z,1026.42
2022-10-19T06:20:22.252Z,1026.45
2022-10-19T06:21:22.422Z,1026.47
2022-10-19T06:22:22.623Z,1026.47
2022-10-19T06:23:22.773Z,1026.49
2022-10-19T06:24:22.941Z,1026.52
2022-10-19T06:25:23.114Z,1026.52
2022-10-19T06:26:23.295Z,1026.52
2022-10-19T06:27:23.563Z,1026.50
2022-10-19T06:28:23.669Z,1026.53
2022-10-19T06:29:23.845Z,1026.51
2022-10-19T06:30:24.036Z,1026.50
2022-10-19T06:31:24.205Z,1026.49
2022-10-19T06:32:24.418Z,1026.56
2022-10-19T06:33:24.556Z,1026.52
2022-10-19T06:34:24.770Z,1026.51
2022-10-19T06:35:24.896Z,1026.53
2022-10-19T06:36:25.077Z,1026.48
2022-10-19T06:37:25.266Z,1026.51
2022-10-19T06:38:25.467Z,1026.52
2022-10-19T06:39:25.611Z,1026.49
2022-10-19T06:40:25.792Z,1026.52
2022-10-19T06:41:25.949Z,1026.56
2022-10-19T06:42:26.139Z,1026.55
2022-10-19T06:43:26.339Z,1026.55
2022-10-19T06:44:26.509Z,1026.56
2022-10-19T06:45:26.689Z,1026.55
2022-10-19T06:46:26.863Z,1026.54
2022-10-19T06:47:27.054Z,1026.59
2022-10-19T06:48:27.229Z,1026.58
2022-10-19T06:49:27.413Z,1026.60
2022-10-19T06:50:27.607Z,1026.59
2022-10-19T06:51:27.760Z,1026.61
2022-10-19T06:52:27.931Z,1026.61
2022-10-19T06:53:28.112Z,1026.65
2022-10-19T06:54:28.271Z,1026.53
2022-10-19T06:55:28.421Z,1026.67
2022-10-19T06:56:28.612Z,1026.62
2022-10-19T06:57:28.793Z,1026.69
2022-10-19T06:58:29.003Z,1026.70
2022-10-19T06:59:29.173Z,1026.72
2022-10-19T07:00:29.436Z,1026.78
2022-10-19T07:01:29.577Z,1026.79
2022-10-19T07:02:29.693Z,1026.81
2022-10-19T07:03:29.893Z,1026.84
2022-10-19T07:04:30.055Z,1026.84
2022-10-19T07:05:30.224Z,1026.84
2022-10-19T07:06:30.414Z,1026.87
2022-10-19T07:07:30.705Z,1026.84
2022-10-19T07:08:30.750Z,1026.88
2022-10-19T07:09:30.918Z,1026.85
2022-10-19T07:10:31.076Z,1026.87
2022-10-19T07:11:31.238Z,1026.79
2022-10-19T07:12:31.422Z,1026.83
2022-10-19T07:13:31.631Z,1026.83
2022-10-19T07:14:31.783Z,1026.88
2022-10-19T07:15:31.934Z,1026.87
2022-10-19T07:16:32.121Z,1026.84
2022-10-19T07:17:32.806Z,1026.86
2022-10-19T07:18:32.488Z,1026.87
2022-10-19T07:19:32.634Z,1026.88
2022-10-19T07:20:32.827Z,1026.91
2022-10-19T07:21:33.013Z,1026.95
2022-10-19T07:22:33.189Z,1026.94
2022-10-19T07:23:33.398Z,1027.01
2022-10-19T07:24:33.569Z,1026.99
2022-10-19T07:25:33.761Z,1027.01
2022-10-19T07:26:33.953Z,1027.00
2022-10-19T07:27:37.592Z,1026.98
2022-10-19T07:28:34.281Z,1026.99
2022-10-19T07:29:34.421Z,1026.95
2022-10-19T07:30:34.612Z,1026.96
2022-10-19T07:31:34.762Z,1026.99
2022-10-19T07:32:34.952Z,1026.94
2022-10-19T07:33:35.152Z,1026.99
2022-10-19T07:34:35.309Z,1026.97
2022-10-19T07:35:35.452Z,1026.97
2022-10-19T07:36:35.663Z,1026.97
2022-10-19T07:37:36.157Z,1026.94
2022-10-19T07:38:35.974Z,1027.02
2022-10-19T07:39:36.155Z,1026.97
2022-10-19T07:40:36.344Z,1026.96
2022-10-19T07:41:36.555Z,1026.97
2022-10-19T07:42:36.717Z,1026.95
2022-10-19T07:43:36.889Z,1026.92
2022-10-19T07:44:37.034Z,1026.94
2022-10-19T07:45:37.216Z,1026.89
2022-10-19T07:46:37.427Z,1026.94
2022-10-19T07:47:37.551Z,1026.90
2022-10-19T07:48:37.737Z,1026.91
2022-10-19T07:49:37.880Z,1026.91
2022-10-19T07:50:38.067Z,1026.90
2022-10-19T07:51:38.237Z,1026.91
2022-10-19T07:52:38.741Z,1026.90
2022-10-19T07:53:38.587Z,1026.87
2022-10-19T07:54:38.769Z,1026.89
2022-10-19T07:55:38.949Z,1026.93
2022-10-19T07:56:39.150Z,1026.89
2022-10-19T07:57:41.543Z,1026.92
2022-10-19T07:58:39.509Z,1026.94
2022-10-19T07:59:39.691Z,1026.93
2022-10-19T08:01:40.111Z,1026.91
2022-10-19T08:02:55.971Z,1026.87
2022-10-19T08:05:00.222Z,1026.87
2022-10-19T08:05:41.752Z,1026.87
2022-10-19T08:06:40.963Z,1026.85
2022-10-19T08:07:41.103Z,1026.81
2022-10-19T08:08:41.377Z,1026.86
2022-10-19T08:09:52.566Z,1026.88
2022-10-19T08:10:42.621Z,1026.87
2022-10-19T08:11:41.802Z,1026.91
2022-10-19T08:12:41.991Z,1026.94
2022-10-19T08:13:42.189Z,1026.92
2022-10-19T08:14:42.325Z,1026.96
2022-10-19T08:15:42.517Z,1026.98
2022-10-19T08:16:42.680Z,1027.05
2022-10-19T08:17:42.826Z,1027.07
2022-10-19T08:18:43.027Z,1027.08
2022-10-19T08:19:43.435Z,1027.03
2022-10-19T08:20:43.328Z,1027.03
2022-10-19T08:21:43.516Z,1027.09
2022-10-19T08:22:43.708Z,1027.08
2022-10-19T08:23:43.916Z,1027.13
2022-10-19T08:24:44.058Z,1027.13
2022-10-19T08:25:44.250Z,1027.15
2022-10-19T08:26:44.441Z,1027.19
2022-10-19T08:27:44.589Z,1027.18
2022-10-19T08:28:44.819Z,1027.22
2022-10-19T08:29:44.977Z,1027.20
2022-10-19T08:30:45.150Z,1027.18
2022-10-19T08:31:45.370Z,1027.22
2022-10-19T08:32:45.534Z,1027.21
2022-10-19T08:33:45.730Z,1027.17
2022-10-19T08:34:45.870Z,1027.20
2022-10-19T08:35:46.051Z,1027.16
2022-10-19T08:36:46.247Z,1027.14
2022-10-19T08:37:46.715Z,1027.19
2022-10-19T08:38:46.632Z,1027.18
2022-10-19T08:39:46.773Z,1027.20
2022-10-19T08:40:46.952Z,1027.20
2022-10-19T08:42:47.303Z,1027.28
2022-10-19T08:43:47.478Z,1027.23
2022-10-19T08:44:47.665Z,1027.26
2022-10-19T08:45:47.878Z,1027.24
2022-10-19T08:46:48.037Z,1027.27
2022-10-19T08:47:48.236Z,1027.29
2022-10-19T08:48:48.376Z,1027.26
2022-10-19T08:49:48.575Z,1027.30
2022-10-19T08:50:48.745Z,1027.31
2022-10-19T08:51:48.965Z,1027.30
2022-10-19T08:52:49.102Z,1027.34
2022-10-19T08:53:49.306Z,1027.36
2022-10-19T08:54:49.449Z,1027.38
2022-10-19T08:55:49.628Z,1027.31
2022-10-19T08:56:51.698Z,1027.30
2022-10-19T08:57:49.982Z,1027.29
2022-10-19T08:58:50.176Z,1027.29
2022-10-19T08:59:50.332Z,1027.33
2022-10-19T09:00:50.510Z,1027.27
2022-10-19T09:01:50.726Z,1027.29
2022-10-19T09:02:50.881Z,1027.33
2022-10-19T09:03:55.471Z,1027.31
2022-10-19T09:04:52.191Z,1027.29
2022-10-19T09:05:51.381Z,1027.28
2022-10-19T09:06:51.573Z,1027.30
2022-10-19T09:07:51.750Z,1027.30
2022-10-19T09:08:52.010Z,1027.33
2022-10-19T09:09:52.095Z,1027.35
2022-10-19T09:10:52.286Z,1027.36
2022-10-19T09:11:52.494Z,1027.36
2022-10-19T09:12:55.026Z,1027.34
2022-10-19T09:14:04.579Z,1027.33
2022-10-19T09:14:53.972Z,1027.30
2022-10-19T09:15:53.133Z,1027.27
2022-10-19T09:16:53.344Z,1027.28
2022-10-19T09:17:53.483Z,1027.29
2022-10-19T09:19:53.859Z,1027.32
2022-10-19T09:20:54.015Z,1027.34
2022-10-19T09:21:54.196Z,1027.34
2022-10-19T09:22:54.350Z,1027.35
2022-10-19T09:23:54.515Z,1027.37
2022-10-19T09:24:54.696Z,1027.35
2022-10-19T09:25:54.863Z,1027.32
2022-10-19T09:26:55.039Z,1027.35
2022-10-19T09:27:55.239Z,1027.32
2022-10-19T09:28:55.368Z,1027.37
2022-10-19T09:29:55.538Z,1027.35
2022-10-19T09:30:55.718Z,1027.35
2022-10-19T09:31:55.928Z,1027.35
2022-10-19T09:32:56.069Z,1027.32
2022-10-19T09:33:56.229Z,1027.34
2022-10-19T09:34:56.419Z,1027.32
2022-10-19T09:35:56.620Z,1027.29
2022-10-19T09:36:56.769Z,1027.28
2022-10-19T09:37:56.934Z,1027.27
2022-10-19T09:38:57.120Z,1027.27
2022-10-19T09:39:57.283Z,1027.31
2022-10-19T09:40:57.448Z,1027.36
2022-10-19T09:41:57.626Z,1027.36
2022-10-19T09:42:57.792Z,1027.39
2022-10-19T09:43:57.954Z,1027.43
2022-10-19T09:44:58.124Z,1027.43
2022-10-19T09:45:58.282Z,1027.43
2022-10-19T09:46:58.480Z,1027.40
2022-10-19T09:48:06.929Z,1027.45
2022-10-19T09:48:59.824Z,1027.50
2022-10-19T09:49:59.010Z,1027.43
2022-10-19T09:50:59.195Z,1027.48
2022-10-19T09:51:59.386Z,1027.47
2022-10-19T09:52:59.534Z,1027.51
2022-10-19T09:53:59.708Z,1027.44
2022-10-19T09:54:59.909Z,1027.46
2022-10-19T09:56:00.081Z,1027.48
2022-10-19T09:57:00.277Z,1027.47
2022-10-19T09:58:00.438Z,1027.53
2022-10-19T09:59:00.606Z,1027.48
2022-10-19T10:00:00.777Z,1027.53
2022-10-19T10:01:00.966Z,1027.50
2022-10-19T10:02:04.145Z,1027.50
2022-10-19T10:03:01.313Z,1027.50
2022-10-19T10:04:01.499Z,1027.53
2022-10-19T10:05:01.681Z,1027.52
2022-10-19T10:06:01.894Z,1027.53
2022-10-19T10:07:02.055Z,1027.52
2022-10-19T10:08:02.210Z,1027.52
2022-10-19T10:09:02.534Z,1027.56
2022-10-19T10:10:02.587Z,1027.57
2022-10-19T10:11:02.772Z,1027.57
2022-10-19T10:12:02.932Z,1027.49
2022-10-19T10:13:03.134Z,1027.47
2022-10-19T10:14:05.037Z,1027.50
2022-10-19T10:15:04.463Z,1027.41
2022-10-19T10:16:03.643Z,1027.47
2022-10-19T10:17:03.822Z,1027.43
2022-10-19T10:18:03.973Z,1027.39
2022-10-19T10:19:04.124Z,1027.43
2022-10-19T10:20:04.274Z,1027.38
2022-10-19T10:21:06.803Z,1027.38
2022-10-19T10:22:04.649Z,1027.39
2022-10-19T10:23:04.816Z,1027.28
2022-10-19T10:24:04.986Z,1027.36
2022-10-19T10:25:05.171Z,1027.32
2022-10-19T10:26:05.357Z,1027.41
2022-10-19T10:27:05.514Z,1027.40
2022-10-19T10:28:05.794Z,1027.44
2022-10-19T10:29:05.887Z,1027.43
2022-10-19T10:30:06.067Z,1027.44
2022-10-19T10:31:06.259Z,1027.46
2022-10-19T10:32:06.447Z,1027.42
2022-10-19T10:33:16.064Z,1027.47
2022-10-19T10:34:22.496Z,1027.46
2022-10-19T10:35:07.973Z,1027.42
2022-10-19T10:36:07.149Z,1027.43
2022-10-19T10:37:07.325Z,1027.41
2022-10-19T10:38:07.491Z,1027.41
2022-10-19T10:39:07.639Z,1027.39
2022-10-19T10:40:07.849Z,1027.40
2022-10-19T10:41:07.993Z,1027.48
2022-10-19T10:43:05.808Z,1027.49
2022-10-19T10:44:05.968Z,1027.45
2022-10-19T10:45:06.136Z,1027.44
2022-10-19T10:46:06.310Z,1027.44
2022-10-19T10:47:06.471Z,1027.42
2022-10-19T10:49:06.833Z,1027.40
2022-10-19T10:50:07.001Z,1027.47
2022-10-19T10:51:07.187Z,1027.49
2022-10-19T10:52:07.374Z,1027.47
2022-10-19T10:53:07.563Z,1027.47
2022-10-19T10:54:07.699Z,1027.51
2022-10-19T10:55:07.936Z,1027.50
2022-10-19T10:56:08.061Z,1027.50
2022-10-19T10:57:08.420Z,1027.52
2022-10-19T10:58:08.431Z,1027.50
2022-10-19T10:59:08.636Z,1027.51
2022-10-19T11:00:08.754Z,1027.51
2022-10-19T11:01:08.960Z,1027.54
2022-10-19T11:02:09.168Z,1027.53
2022-10-19T11:03:09.302Z,1027.52
2022-10-19T11:04:09.461Z,1027.55
2022-10-19T11:05:09.609Z,1027.52
2022-10-19T11:06:09.809Z,1027.50
2022-10-19T11:07:09.975Z,1027.52
2022-10-19T11:08:10.196Z,1027.52
2022-10-19T11:09:10.370Z,1027.50
2022-10-19T11:10:10.501Z,1027.51
2022-10-19T11:11:10.677Z,1027.46
2022-10-19T11:12:10.857Z,1027.42
2022-10-19T11:13:11.744Z,1027.43
2022-10-19T11:14:11.190Z,1027.40
2022-10-19T11:15:11.339Z,1027.42
2022-10-19T11:16:11.550Z,1027.41
2022-10-19T11:17:11.679Z,1027.39
2022-10-19T11:18:11.910Z,1027.40
2022-10-19T11:19:12.148Z,1027.38
2022-10-19T11:20:12.220Z,1027.34
2022-10-19T11:21:12.401Z,1027.42
2022-10-19T11:22:12.616Z,1027.44
2022-10-19T11:23:12.797Z,1027.42
2022-10-19T11:24:13.010Z,1027.37
2022-10-19T11:25:13.130Z,1027.38
2022-10-19T11:26:13.314Z,1027.39
2022-10-19T11:27:13.504Z,1027.37
2022-10-19T11:28:13.689Z,1027.37
2022-10-19T11:29:13.850Z,1027.33
2022-10-19T11:30:14.089Z,1027.32
2022-10-19T11:31:14.187Z,1027.29
2022-10-19T11:32:14.338Z,1027.28
2022-10-19T11:33:14.526Z,1027.30
2022-10-19T11:34:16.169Z,1027.29
2022-10-19T11:35:14.875Z,1027.30
2022-10-19T11:36:15.015Z,1027.31
2022-10-19T11:37:15.176Z,1027.28
2022-10-19T11:38:20.399Z,1027.25
2022-10-19T11:39:16.528Z,1027.25
2022-10-19T11:40:19.849Z,1027.26
2022-10-19T11:41:18.275Z,1027.25
2022-10-19T11:42:16.033Z,1027.17
2022-10-19T11:43:16.219Z,1027.20
2022-10-19T11:44:16.443Z,1027.22
2022-10-19T11:45:16.579Z,1027.24
2022-10-19T11:46:16.754Z,1027.23
2022-10-19T11:47:16.920Z,1027.26
2022-10-19T11:48:17.208Z,1027.25
2022-10-19T11:49:17.281Z,1027.27
2022-10-19T11:50:17.443Z,1027.22
2022-10-19T11:51:21.664Z,1027.23
2022-10-19T11:52:17.819Z,1027.21
2022-10-19T11:53:17.934Z,1027.16
2022-10-19T11:54:18.125Z,1027.10
2022-10-19T11:55:18.303Z,1027.08
2022-10-19T11:56:18.486Z,1027.09
2022-10-19T11:57:18.641Z,1027.10
2022-10-19T11:58:18.942Z,1027.12
2022-10-19T11:59:19.037Z,1027.15
2022-10-19T12:00:38.147Z,1027.13
2022-10-19T12:01:20.367Z,1027.13
2022-10-19T12:02:19.627Z,1027.16
2022-10-19T12:03:19.737Z,1027.18
2022-10-19T12:04:19.914Z,1027.15
2022-10-19T12:05:20.046Z,1027.15
2022-10-19T12:06:20.242Z,1027.13
2022-10-19T12:07:20.455Z,1027.15
2022-10-19T12:08:20.593Z,1027.09
2022-10-19T12:09:20.873Z,1027.17
2022-10-19T12:10:20.938Z,1027.13
2022-10-19T12:11:21.135Z,1027.12
2022-10-19T12:12:21.242Z,1027.13
2022-10-19T12:13:21.394Z,1027.13
2022-10-19T12:14:21.592Z,1027.09